This is the latest recevied weather packets stored in our database for station/object DL9TK-10. If no packets are shown the sender has not sent any weather packets the latest 10 day(s).
| Time | Temp. | Humidity | Pressure | Rain* | Wind** | Luminosity | Snow |
|---|---|---|---|---|---|---|---|
| 1778173128 | 20° C | 27% | 1017.8 hPa | - | - | - | - |
| 1778172228 | 20° C | 27% | 1017.8 hPa | - | - | - | - |
| 1778171328 | 20° C | 27% | 1017.7 hPa | - | - | - | - |
| 1778170428 | 20.56° C | 26% | 1017.8 hPa | - | - | - | - |
| 1778169528 | 20.56° C | 27% | 1017.7 hPa | - | - | - | - |
| 1778168628 | 21.11° C | 26% | 1017.6 hPa | - | - | - | - |
| 1778167728 | 20.56° C | 26% | 1017.6 hPa | - | - | - | - |
| 1778166828 | 21.11° C | 26% | 1017.4 hPa | - | - | - | - |
| 1778165927 | 21.11° C | 26% | 1017.5 hPa | - | - | - | - |
| 1778165027 | 21.11° C | 27% | 1017.5 hPa | - | - | - | - |
| 1778164127 | 21.67° C | 27% | 1017.4 hPa | - | - | - | - |
| 1778163227 | 21.67° C | 26% | 1017.3 hPa | - | - | - | - |
| 1778162327 | 21.67° C | 27% | 1017.4 hPa | - | - | - | - |
| 1778161427 | 21.11° C | 27% | 1017.5 hPa | - | - | - | - |
| 1778160527 | 21.67° C | 26% | 1017.3 hPa | - | - | - | - |
| 1778159627 | 22.22° C | 27% | 1017.3 hPa | - | - | - | - |
| 1778158727 | 21.11° C | 27% | 1017.3 hPa | - | - | - | - |
| 1778157827 | 22.78° C | 29% | 1017.1 hPa | - | - | - | - |
| 1778156927 | 20.56° C | 29% | 1017.2 hPa | - | - | - | - |
| 1778156027 | 21.11° C | 29% | 1017 hPa | - | - | - | - |
| 1778155127 | 21.11° C | 30% | 1017 hPa | - | - | - | - |
| 1778154227 | 21.11° C | 31% | 1017 hPa | - | - | - | - |
| 1778153326 | 20.56° C | 32% | 1016.9 hPa | - | - | - | - |
| 1778152426 | 20° C | 33% | 1016.9 hPa | - | - | - | - |
| 1778151526 | 19.44° C | 33% | 1016.8 hPa | - | - | - | - |
* Rain since midnight (hover to see other rain measurements)
** Current wind speed in m/s (hover to see current wind gust speed)